Orbital elements of FENGYUN 1C DEB
| Launched | 9 May 1999 |
| Flight ended | – |
| Launch site | Taiyuan Space Center, PRC |
| Owner | People's Republic of China |
| NORAD ID | 30005 |
| Date fetched |
Epoch osculation |
Inc. [°] |
Ecc. | RA asc node [hr] |
Arg Peri. [°] |
Mean anom [°] |
Mean motion [rev/day] |
Abs. mag |
| Date fetched |
Epoch osculation |
Inc. [°] |
Ecc. | RA asc node [hr] |
Arg Peri. [°] |
Mean anom [°] |
Mean motion [rev/day] |
Abs. mag |
| 2026 May 04 17:57 | 2026 Apr 30 08:29:00 | 99.3181 | 0.03467 | 5.2733 | 102.5945 | 261.4188 | 13.52618 | – |
| 2026 May 03 17:57 | 2026 Apr 30 08:29:00 | 99.3181 | 0.03467 | 5.2733 | 102.5945 | 261.4188 | 13.52618 | – |
| 2026 May 02 17:57 | 2026 Apr 30 08:29:00 | 99.3181 | 0.03467 | 5.2733 | 102.5945 | 261.4188 | 13.52618 | – |
| 2026 May 01 17:56 | 2026 Apr 30 08:29:00 | 99.3181 | 0.03467 | 5.2733 | 102.5945 | 261.4188 | 13.52618 | – |
| 2026 Apr 30 17:56 | 2026 Apr 30 08:29:00 | 99.3181 | 0.03467 | 5.2733 | 102.5945 | 261.4188 | 13.52618 | – |
| 2026 Apr 29 17:57 | 2026 Apr 23 07:49:50 | 99.3175 | 0.03462 | 4.8321 | 120.3350 | 261.4188 | 13.52618 | – |
| 2026 Apr 28 17:56 | 2026 Apr 23 07:49:50 | 99.3175 | 0.03462 | 4.8321 | 120.3350 | 261.4188 | 13.52618 | – |
| 2026 Apr 27 17:58 | 2026 Apr 23 07:49:50 | 99.3175 | 0.03462 | 4.8321 | 120.3350 | 261.4188 | 13.52618 | – |
| 2026 Apr 26 17:58 | 2026 Apr 23 07:49:50 | 99.3175 | 0.03462 | 4.8321 | 120.3350 | 261.4188 | 13.52618 | – |
| 2026 Apr 25 17:58 | 2026 Apr 23 07:49:50 | 99.3175 | 0.03462 | 4.8321 | 120.3350 | 261.4188 | 13.52618 | – |
| 2026 Apr 24 17:59 | 2026 Apr 23 07:49:50 | 99.3175 | 0.03462 | 4.8321 | 120.3350 | 261.4188 | 13.52618 | – |
| 2026 Apr 23 17:57 | 2026 Apr 19 07:57:47 | 99.3171 | 0.03458 | 4.5813 | 130.4382 | 261.4188 | 13.52618 | – |
| 2026 Apr 22 17:57 | 2026 Apr 19 07:57:47 | 99.3171 | 0.03458 | 4.5813 | 130.4382 | 261.4188 | 13.52618 | – |
| 2026 Apr 21 17:57 | 2026 Apr 19 07:57:47 | 99.3171 | 0.03458 | 4.5813 | 130.4382 | 261.4188 | 13.52618 | – |
| 2026 Apr 20 17:57 | 2026 Apr 19 07:57:47 | 99.3171 | 0.03458 | 4.5813 | 130.4382 | 261.4188 | 13.52618 | – |
| 2026 Apr 19 17:58 | 2026 Apr 19 07:57:47 | 99.3171 | 0.03458 | 4.5813 | 130.4382 | 261.4188 | 13.52618 | – |
| 2026 Apr 18 17:56 | 2026 Apr 12 09:04:49 | 99.3160 | 0.03453 | 4.1447 | 148.0372 | 261.4188 | 13.52618 | – |
| 2026 Apr 16 17:57 | 2026 Apr 12 09:04:49 | 99.3160 | 0.03453 | 4.1447 | 148.0372 | 261.4188 | 13.52618 | – |
| 2026 Apr 14 17:57 | 2026 Apr 12 09:04:49 | 99.3160 | 0.03453 | 4.1447 | 148.0372 | 261.4188 | 13.52618 | – |
| 2026 Apr 13 17:57 | 2026 Apr 12 09:04:49 | 99.3160 | 0.03453 | 4.1447 | 148.0372 | 261.4188 | 13.52618 | – |
| 2026 Apr 12 17:57 | 2026 Apr 07 10:07:49 | 99.3164 | 0.03450 | 3.8336 | 160.5946 | 261.4188 | 13.52618 | – |
| 2026 Apr 11 17:57 | 2026 Apr 07 10:07:49 | 99.3164 | 0.03450 | 3.8336 | 160.5946 | 261.4188 | 13.52618 | – |
| 2026 Apr 10 17:58 | 2026 Apr 07 10:07:49 | 99.3164 | 0.03450 | 3.8336 | 160.5946 | 261.4188 | 13.52618 | – |
| 2026 Apr 09 18:01 | 2026 Apr 07 10:07:49 | 99.3164 | 0.03450 | 3.8336 | 160.5946 | 261.4188 | 13.52618 | – |
| 2026 Apr 08 17:57 | 2026 Apr 07 10:07:49 | 99.3164 | 0.03450 | 3.8336 | 160.5946 | 261.4188 | 13.52618 | – |
| 2026 Apr 07 17:57 | 2026 Apr 02 04:04:40 | 99.3156 | 0.03448 | 3.5039 | 173.9114 | 261.4188 | 13.52618 | – |